Time;durP1;ratioP1;P1;durP2;ratioP2;P2;SDS_P1;SDS_P2;PMS_P1;PMS_P2;Temp;Humidity;BMP_temperature;BMP_pressure;BME280_temperature;BME280_humidity;BME280_pressure;Samples;Min_cycle;Max_cycle;Signal;HPM_P1;HPM_P2
2021/10/29 00:00:29;;;;;;;;;;;14.00;86.20;;;;;;4361589;32;25733;-79
2021/10/29 00:02:59;;;;;;;;;;;14.00;86.20;;;;;;4360620;32;38063;-79
2021/10/29 00:05:34;;;;;;;;;;;14.00;86.20;;;;;;4361479;32;23688;-80
2021/10/29 00:08:08;;;;;;;;;;;14.00;86.20;;;;;;4335920;32;20705;-79
2021/10/29 00:10:37;;;;;;;;;;;14.00;86.20;;;;;;4362163;32;20005;-79
2021/10/29 00:13:16;;;;;;;;;;;14.00;86.00;;;;;;4347894;32;20049;-81
2021/10/29 00:15:46;;;;;;;;;;;14.00;86.00;;;;;;4347776;32;34359;-80
2021/10/29 00:18:14;;;;;;;;;;;14.00;86.00;;;;;;4335967;32;20008;-80
2021/10/29 00:20:49;;;;;;;;;;;14.00;86.10;;;;;;4336089;32;20064;-81
2021/10/29 00:23:22;;;;;;;;;;;14.00;86.00;;;;;;4334846;32;37466;-80
2021/10/29 00:25:52;;;;;;;;;;;14.00;86.10;;;;;;4347041;32;40718;-80
2021/10/29 00:28:23;;;;;;;;;;;14.00;86.10;;;;;;4347862;32;20044;-79
2021/10/29 00:30:56;;;;;;;;;;;14.00;86.10;;;;;;4348603;32;20358;-79
2021/10/29 00:33:30;;;;;;;;;;;14.00;86.10;;;;;;4347665;32;21145;-78
2021/10/29 00:36:02;;;;;;;;;;;14.00;86.10;;;;;;4335278;32;38322;-80
2021/10/29 00:38:38;;;;;;;;;;;14.00;86.10;;;;;;4348091;32;20011;-80
2021/10/29 00:41:05;;;;;;;;;;;14.00;86.10;;;;;;4348418;32;20005;-80
2021/10/29 00:43:35;;;;;;;;;;;13.90;86.10;;;;;;4348085;32;20069;-80
2021/10/29 00:46:08;;;;;;;;;;;13.90;86.30;;;;;;4348750;32;20009;-79
2021/10/29 00:48:39;;;;;;;;;;;13.90;86.30;;;;;;4334676;32;31684;-81
2021/10/29 00:51:12;;;;;;;;;;;13.80;86.20;;;;;;4335482;32;20005;-79
2021/10/29 00:53:39;;;;;;;;;;;13.80;86.40;;;;;;4336065;32;20044;-80
2021/10/29 00:56:12;;;;;;;;;;;13.80;86.40;;;;;;4360477;32;28603;-79
2021/10/29 00:58:45;;;;;;;;;;;13.80;86.40;;;;;;4361068;32;19996;-78
2021/10/29 01:01:12;;;;;;;;;;;13.80;86.40;;;;;;4347188;32;31403;-79
2021/10/29 01:03:41;;;;;;;;;;;13.70;86.50;;;;;;4360479;32;21271;-78
2021/10/29 01:06:20;;;;;;;;;;;13.70;86.50;;;;;;4347742;33;20011;-79
2021/10/29 01:08:52;;;;;;;;;;;13.70;86.60;;;;;;4348240;33;20440;-79
2021/10/29 01:11:22;;;;;;;;;;;13.70;86.70;;;;;;4334687;33;38878;-79
2021/10/29 01:13:55;;;;;;;;;;;13.70;86.70;;;;;;4347013;33;34172;-80
2021/10/29 01:16:25;;;;;;;;;;;13.70;86.70;;;;;;4360936;33;22328;-80
2021/10/29 01:18:58;;;;;;;;;;;13.70;86.80;;;;;;4347945;33;20023;-78
2021/10/29 01:21:28;;;;;;;;;;;13.60;86.80;;;;;;4348183;33;20080;-81
2021/10/29 01:24:01;;;;;;;;;;;13.60;86.90;;;;;;4361400;32;20015;-79
2021/10/29 01:26:33;;;;;;;;;;;13.60;86.90;;;;;;4349128;32;38369;-79
2021/10/29 01:29:09;;;;;;;;;;;13.60;86.90;;;;;;4337364;32;38196;-79
2021/10/29 01:31:39;;;;;;;;;;;13.60;86.90;;;;;;4349608;32;41816;-79
2021/10/29 01:34:10;;;;;;;;;;;13.60;87.00;;;;;;4349847;32;34461;-79
2021/10/29 01:36:40;;;;;;;;;;;13.60;87.00;;;;;;4363346;32;28072;-78
2021/10/29 01:39:11;;;;;;;;;;;13.60;87.10;;;;;;4349938;32;42475;-78
2021/10/29 01:41:43;;;;;;;;;;;13.60;87.10;;;;;;4362943;32;37542;-80
2021/10/29 01:44:14;;;;;;;;;;;13.60;87.10;;;;;;4363859;32;20048;-78
2021/10/29 01:46:44;;;;;;;;;;;13.60;87.10;;;;;;4336716;32;46652;-79
2021/10/29 01:49:15;;;;;;;;;;;13.60;87.20;;;;;;4337374;32;39117;-78
2021/10/29 01:51:42;;;;;;;;;;;13.60;87.10;;;;;;4350817;32;20028;-77
2021/10/29 01:54:15;;;;;;;;;;;13.60;87.20;;;;;;4363713;32;20009;-77
2021/10/29 01:56:43;;;;;;;;;;;13.60;87.10;;;;;;4337142;32;40092;-79
2021/10/29 01:59:13;;;;;;;;;;;13.60;87.10;;;;;;4350600;32;20019;-79
2021/10/29 02:01:46;;;;;;;;;;;13.60;87.10;;;;;;4363345;32;20139;-79
2021/10/29 02:04:19;;;;;;;;;;;13.50;87.10;;;;;;4336861;32;33440;-78
2021/10/29 02:06:46;;;;;;;;;;;13.60;87.20;;;;;;4349775;32;29259;-79
2021/10/29 02:09:19;;;;;;;;;;;13.60;87.10;;;;;;4350047;32;20411;-79
2021/10/29 02:11:49;;;;;;;;;;;13.60;87.10;;;;;;4336836;32;41974;-79
2021/10/29 02:14:22;;;;;;;;;;;13.60;87.10;;;;;;4337570;32;20024;-77
2021/10/29 02:16:55;;;;;;;;;;;13.50;87.10;;;;;;4337286;32;25581;-80
2021/10/29 02:19:25;;;;;;;;;;;13.50;87.90;;;;;;4362832;32;36906;-78
2021/10/29 02:21:58;;;;;;;;;;;13.60;87.20;;;;;;4362478;32;40989;-79
2021/10/29 02:24:28;;;;;;;;;;;13.60;87.10;;;;;;4337157;32;28876;-79
2021/10/29 02:27:01;;;;;;;;;;;13.60;87.10;;;;;;4362595;32;34757;-79
2021/10/29 02:29:34;;;;;;;;;;;13.60;87.10;;;;;;4348625;32;38869;-78
2021/10/29 02:32:04;;;;;;;;;;;13.60;87.10;;;;;;4349919;32;27917;-78
2021/10/29 02:34:34;;;;;;;;;;;13.60;87.10;;;;;;4336371;32;35205;-77
2021/10/29 02:37:08;;;;;;;;;;;13.60;87.10;;;;;;4348379;32;35580;-80
2021/10/29 02:39:40;;;;;;;;;;;13.60;87.10;;;;;;4348771;32;42453;-79
2021/10/29 02:42:10;;;;;;;;;;;13.60;87.20;;;;;;4337329;32;20007;-78
2021/10/29 02:44:43;;;;;;;;;;;13.50;87.20;;;;;;4349056;32;36169;-80
2021/10/29 02:47:16;;;;;;;;;;;13.60;87.20;;;;;;4348279;32;43383;-79
2021/10/29 02:49:48;;;;;;;;;;;13.60;87.20;;;;;;4362606;32;24089;-79
2021/10/29 02:52:18;;;;;;;;;;;13.60;87.20;;;;;;4349729;32;20030;-79
2021/10/29 02:54:51;;;;;;;;;;;13.50;87.20;;;;;;4349453;32;20041;-79
2021/10/29 02:57:24;;;;;;;;;;;13.50;87.20;;;;;;4348492;32;36935;-79
2021/10/29 02:59:56;;;;;;;;;;;13.50;87.20;;;;;;4348147;32;40705;-79
2021/10/29 03:02:26;;;;;;;;;;;13.50;87.20;;;;;;4348243;32;36348;-80
2021/10/29 03:04:57;;;;;;;;;;;13.50;87.30;;;;;;4349444;32;20009;-78
2021/10/29 03:07:30;;;;;;;;;;;13.50;87.30;;;;;;4349488;32;26036;-79
2021/10/29 03:10:03;;;;;;;;;;;13.50;87.40;;;;;;4348971;32;20055;-78
2021/10/29 03:12:34;;;;;;;;;;;13.50;88.20;;;;;;4336078;32;41124;-78
2021/10/29 03:15:05;;;;;;;;;;;13.50;87.50;;;;;;4362480;32;20043;-79
2021/10/29 03:17:35;;;;;;;;;;;13.40;87.50;;;;;;4348243;32;33657;-78
2021/10/29 03:20:08;;;;;;;;;;;13.40;87.50;;;;;;4349053;32;20017;-79
2021/10/29 03:22:39;;;;;;;;;;;13.40;87.60;;;;;;4348233;32;32744;-80
2021/10/29 03:25:11;;;;;;;;;;;13.40;87.50;;;;;;4335946;32;42050;-78
2021/10/29 03:27:44;;;;;;;;;;;13.50;87.60;;;;;;4361900;32;28765;-79
2021/10/29 03:30:19;;;;;;;;;;;13.40;87.50;;;;;;4348765;32;23533;-80
2021/10/29 03:32:49;;;;;;;;;;;13.40;87.60;;;;;;4348643;32;27331;-79
2021/10/29 03:35:25;;;;;;;;;;;13.40;87.60;;;;;;4347746;32;32940;-80
2021/10/29 03:40:56;;;;;;;;;;;13.40;87.80;;;;;;4362331;32;20005;-80
2021/10/29 03:46:13;;;;;;;;;;;13.40;87.80;;;;;;4348515;32;20011;-79
2021/10/29 03:51:42;;;;;;;;;;;13.40;87.80;;;;;;4361238;32;39044;-78
2021/10/29 03:54:34;;;;;;;;;;;13.40;87.80;;;;;;4349223;32;20087;-78
2021/10/29 03:59:31;;;;;;;;;;;13.30;87.90;;;;;;4361959;32;23881;-79
2021/10/29 04:02:02;;;;;;;;;;;13.30;88.00;;;;;;4359645;32;41027;-80
2021/10/29 04:04:39;;;;;;;;;;;13.30;88.00;;;;;;4336208;32;20463;-79
2021/10/29 04:07:14;;;;;;;;;;;13.40;88.10;;;;;;4362200;32;20055;-80
2021/10/29 04:09:50;;;;;;;;;;;13.30;88.00;;;;;;4347050;32;46758;-80
2021/10/29 04:12:31;;;;;;;;;;;13.30;88.00;;;;;;4348081;32;28630;-78
2021/10/29 04:15:00;;;;;;;;;;;13.30;88.00;;;;;;4361295;32;34933;-80
2021/10/29 04:17:44;;;;;;;;;;;13.30;88.00;;;;;;4336664;32;20005;-78
2021/10/29 04:20:25;;;;;;;;;;;13.30;88.10;;;;;;4348229;32;20069;-78
2021/10/29 04:23:01;;;;;;;;;;;13.30;88.20;;;;;;4347548;32;26095;-80
2021/10/29 04:25:39;;;;;;;;;;;13.30;88.20;;;;;;4348380;32;20011;-80
2021/10/29 04:28:15;;;;;;;;;;;13.30;88.20;;;;;;4347735;32;32311;-79
2021/10/29 04:30:54;;;;;;;;;;;13.20;88.20;;;;;;4361936;32;20005;-79
2021/10/29 04:33:33;;;;;;;;;;;13.20;88.30;;;;;;4347667;32;22300;-80
2021/10/29 04:36:10;;;;;;;;;;;13.20;88.40;;;;;;4361416;32;20027;-80
2021/10/29 04:38:38;;;;;;;;;;;13.20;88.40;;;;;;4347909;32;20051;-81
2021/10/29 04:41:05;;;;;;;;;;;13.20;88.40;;;;;;4346951;32;36869;-80
2021/10/29 04:43:32;;;;;;;;;;;13.20;88.40;;;;;;4346950;32;32558;-80
2021/10/29 04:46:04;;;;;;;;;;;13.20;88.40;;;;;;4335532;32;20048;-80
2021/10/29 04:48:32;;;;;;;;;;;13.30;88.40;;;;;;4347378;32;36233;-80
2021/10/29 04:51:05;;;;;;;;;;;13.20;88.40;;;;;;4348171;32;20053;-81
2021/10/29 04:53:38;;;;;;;;;;;13.20;88.40;;;;;;4334601;32;46952;-80
2021/10/29 04:56:07;;;;;;;;;;;13.30;88.40;;;;;;4334548;32;39612;-80
2021/10/29 04:58:43;;;;;;;;;;;13.30;88.40;;;;;;4335840;32;20001;-80
2021/10/29 05:01:16;;;;;;;;;;;13.30;88.40;;;;;;4345911;32;45763;-80
2021/10/29 05:03:49;;;;;;;;;;;13.30;88.50;;;;;;4360066;32;30274;-81
2021/10/29 05:06:19;;;;;;;;;;;13.30;88.40;;;;;;4347299;33;26709;-81
2021/10/29 05:08:53;;;;;;;;;;;13.30;88.40;;;;;;4335876;33;20040;-81
2021/10/29 05:11:26;;;;;;;;;;;13.30;88.50;;;;;;4346776;33;28764;-81
2021/10/29 05:13:58;;;;;;;;;;;13.30;88.40;;;;;;4347712;33;20017;-81
2021/10/29 05:16:31;;;;;;;;;;;13.30;88.50;;;;;;4346216;33;46630;-81
2021/10/29 05:19:05;;;;;;;;;;;13.30;88.40;;;;;;4361392;33;20056;-81
2021/10/29 05:21:35;;;;;;;;;;;13.30;88.40;;;;;;4348137;33;20022;-81
2021/10/29 05:24:11;;;;;;;;;;;13.30;88.40;;;;;;4346577;33;43157;-81
2021/10/29 05:26:44;;;;;;;;;;;13.30;88.40;;;;;;4347534;33;20013;-81
2021/10/29 05:29:20;;;;;;;;;;;13.40;88.50;;;;;;4347003;33;31300;-81
2021/10/29 05:31:53;;;;;;;;;;;13.30;88.40;;;;;;4347958;33;20015;-81
2021/10/29 05:34:25;;;;;;;;;;;13.30;88.50;;;;;;4361288;33;20072;-81
2021/10/29 05:37:00;;;;;;;;;;;13.30;88.40;;;;;;4361327;33;20075;-80
2021/10/29 05:39:31;;;;;;;;;;;13.30;88.50;;;;;;4360352;33;28654;-81
2021/10/29 05:42:02;;;;;;;;;;;13.30;88.60;;;;;;4334415;33;43568;-81
2021/10/29 05:44:32;;;;;;;;;;;13.30;88.60;;;;;;4346402;33;37038;-80
2021/10/29 05:46:59;;;;;;;;;;;13.30;88.60;;;;;;4333995;33;40712;-80
2021/10/29 05:49:35;;;;;;;;;;;13.30;88.60;;;;;;4335332;33;20079;-81
2021/10/29 05:52:06;;;;;;;;;;;13.30;88.60;;;;;;4360962;33;19997;-81
2021/10/29 05:54:39;;;;;;;;;;;13.30;88.60;;;;;;4346213;33;39192;-80
2021/10/29 05:57:06;;;;;;;;;;;13.30;88.50;;;;;;4347547;33;20021;-80
2021/10/29 05:59:41;;;;;;;;;;;13.40;88.50;;;;;;4347599;33;20013;-79
2021/10/29 06:02:11;;;;;;;;;;;13.40;88.50;;;;;;4335247;33;20031;-80
2021/10/29 06:04:38;;;;;;;;;;;13.40;88.50;;;;;;4346647;33;40030;-80
2021/10/29 06:07:05;;;;;;;;;;;13.40;88.50;;;;;;4347991;33;20056;-81
2021/10/29 06:09:39;;;;;;;;;;;13.40;88.50;;;;;;4347146;33;20015;-81
2021/10/29 06:12:12;;;;;;;;;;;13.40;88.50;;;;;;4362847;32;20414;-80
2021/10/29 06:14:42;;;;;;;;;;;13.40;88.50;;;;;;4350078;32;25968;-79
2021/10/29 06:17:17;;;;;;;;;;;13.40;88.40;;;;;;4362693;32;21279;-81
2021/10/29 06:19:47;;;;;;;;;;;13.40;88.40;;;;;;4362701;32;32425;-81
2021/10/29 06:24:51;;;;;;;;;;;13.40;88.50;;;;;;4348801;32;44922;-80
2021/10/29 06:29:51;;;;;;;;;;;13.40;88.50;;;;;;4349980;32;20402;-79
2021/10/29 06:32:25;;;;;;;;;;;13.40;88.50;;;;;;4337562;32;22043;-79
2021/10/29 06:34:55;;;;;;;;;;;13.40;88.50;;;;;;4362315;32;23610;-80
2021/10/29 06:37:25;;;;;;;;;;;13.40;88.60;;;;;;4336967;32;24144;-81
2021/10/29 06:39:58;;;;;;;;;;;13.40;88.50;;;;;;4348425;32;35511;-80
2021/10/29 06:42:35;;;;;;;;;;;13.40;88.50;;;;;;4362605;32;32884;-81
2021/10/29 06:59:20;;;;;;;;;;;13.40;88.50;;;;;;4363217;32;20023;-81
2021/10/29 07:01:52;;;;;;;;;;;13.40;88.50;;;;;;4362085;32;28561;-80
2021/10/29 07:39:58;;;;;;;;;;;13.40;88.60;;;;;;4362730;32;20382;-79
2021/10/29 07:40:47;;;;;;;;;;;13.30;88.80;;;;;;4348874;32;20063;-79
2021/10/29 07:43:32;;;;;;;;;;;13.30;88.80;;;;;;4349121;32;20001;-79
2021/10/29 07:46:05;;;;;;;;;;;13.40;88.80;;;;;;4362105;32;20312;-80
2021/10/29 07:48:44;;;;;;;;;;;13.40;88.80;;;;;;4362421;32;20028;-79
2021/10/29 07:51:14;;;;;;;;;;;13.40;88.90;;;;;;4335155;32;38632;-79
2021/10/29 07:53:44;;;;;;;;;;;13.40;88.90;;;;;;4336002;32;22862;-79
2021/10/29 07:56:14;;;;;;;;;;;13.30;89.00;;;;;;4348158;32;30782;-79
2021/10/29 07:58:47;;;;;;;;;;;13.30;89.10;;;;;;4347747;32;36785;-79
2021/10/29 08:01:20;;;;;;;;;;;13.30;89.10;;;;;;4348526;32;25630;-80
2021/10/29 08:03:53;;;;;;;;;;;13.30;89.10;;;;;;4361644;32;21989;-80
2021/10/29 08:06:29;;;;;;;;;;;13.40;89.20;;;;;;4348150;32;32040;-80
2021/10/29 08:09:00;;;;;;;;;;;13.30;89.20;;;;;;4361199;32;37374;-79
2021/10/29 08:11:35;;;;;;;;;;;13.30;89.30;;;;;;4335577;32;27880;-78
2021/10/29 08:14:10;;;;;;;;;;;13.30;90.00;;;;;;4348796;32;20068;-78
2021/10/29 08:16:45;;;;;;;;;;;13.30;89.40;;;;;;4335993;32;26240;-79
2021/10/29 08:19:23;;;;;;;;;;;13.30;89.50;;;;;;4347601;32;28112;-78
2021/10/29 08:22:01;;;;;;;;;;;13.30;89.60;;;;;;4362116;32;20087;-79
2021/10/29 08:24:38;;;;;;;;;;;13.40;89.60;;;;;;4348413;32;20054;-79
2021/10/29 08:27:13;;;;;;;;;;;13.30;89.60;;;;;;4335216;32;29415;-79
2021/10/29 08:29:48;;;;;;;;;;;13.30;89.70;;;;;;4335379;32;27868;-80
2021/10/29 08:32:21;;;;;;;;;;;13.40;89.80;;;;;;4334834;32;35515;-79
2021/10/29 08:34:57;;;;;;;;;;;13.40;89.90;;;;;;4347494;32;34595;-79
2021/10/29 08:37:31;;;;;;;;;;;13.40;89.80;;;;;;4335949;32;20477;-79
2021/10/29 08:40:01;;;;;;;;;;;13.40;89.90;;;;;;4347737;32;20409;-78
2021/10/29 08:42:32;;;;;;;;;;;13.40;89.90;;;;;;4347771;32;20023;-79
2021/10/29 08:45:06;;;;;;;;;;;13.40;89.70;;;;;;4347827;32;29919;-79
2021/10/29 08:47:42;;;;;;;;;;;13.50;89.90;;;;;;4347110;32;38879;-79
2021/10/29 08:50:17;;;;;;;;;;;13.50;89.90;;;;;;4348135;32;20030;-80
2021/10/29 08:52:50;;;;;;;;;;;13.50;89.90;;;;;;4347733;32;20027;-79
2021/10/29 08:55:23;;;;;;;;;;;13.60;90.00;;;;;;4360892;32;29955;-79
2021/10/29 08:57:56;;;;;;;;;;;13.60;90.00;;;;;;4361142;32;20004;-80
2021/10/29 09:00:25;;;;;;;;;;;13.60;90.00;;;;;;4346880;32;34900;-78
2021/10/29 09:03:43;;;;;;;;;;;13.70;90.00;;;;;;4360884;32;20020;-78
2021/10/29 09:06:00;;;;;;;;;;;13.70;90.00;;;;;;4340362;32;44319;-78
2021/10/29 09:09:26;;;;;;;;;;;13.70;90.00;;;;;;4346715;33;43679;-77
2021/10/29 09:31:27;;;;;;;;;;;14.00;90.00;;;;;;4347662;33;19997;-77
2021/10/29 09:33:57;;;;;;;;;;;14.00;90.00;;;;;;4347114;33;20020;-78
2021/10/29 09:36:37;;;;;;;;;;;14.00;90.00;;;;;;4360862;33;20052;-78
2021/10/29 09:39:08;;;;;;;;;;;14.10;90.00;;;;;;4347879;33;20006;-78
2021/10/29 09:41:38;;;;;;;;;;;14.10;90.00;;;;;;4360689;33;20365;-77
2021/10/29 09:44:07;;;;;;;;;;;14.10;90.00;;;;;;4346792;33;25492;-79
2021/10/29 09:46:56;;;;;;;;;;;14.20;90.00;;;;;;4350450;32;20068;-78
2021/10/29 09:49:31;;;;;;;;;;;14.20;90.00;;;;;;4362739;32;40961;-77
2021/10/29 09:57:33;;;;;;;;;;;14.40;90.40;;;;;;4362317;32;45315;-78
2021/10/29 10:00:12;;;;;;;;;;;14.50;90.00;;;;;;4363719;32;20005;-77
2021/10/29 10:02:42;;;;;;;;;;;14.50;89.80;;;;;;4349427;32;25836;-77
2021/10/29 10:05:10;;;;;;;;;;;14.60;89.70;;;;;;4363039;32;33055;-77
2021/10/29 10:07:42;;;;;;;;;;;14.60;89.60;;;;;;4336532;32;41549;-77
2021/10/29 10:10:12;;;;;;;;;;;14.70;89.50;;;;;;4349584;32;25274;-78
2021/10/29 10:12:41;;;;;;;;;;;14.80;89.50;;;;;;4349498;32;36951;-78
2021/10/29 10:15:11;;;;;;;;;;;14.80;89.40;;;;;;4362962;32;20019;-77
2021/10/29 10:17:44;;;;;;;;;;;14.90;89.40;;;;;;4363841;32;20015;-78
2021/10/29 10:20:11;;;;;;;;;;;15.00;89.30;;;;;;4348902;32;35376;-78
2021/10/29 10:22:40;;;;;;;;;;;15.10;89.30;;;;;;4348485;32;38921;-77
2021/10/29 10:25:15;;;;;;;;;;;15.10;89.10;;;;;;4349886;32;20034;-78
2021/10/29 10:31:17;;;;;;;;;;;15.20;88.50;;;;;;4363732;32;20431;-78
2021/10/29 10:44:47;;;;;;;;;;;15.60;88.30;;;;;;4362968;32;20013;-78
2021/10/29 10:47:22;;;;;;;;;;;15.60;87.80;;;;;;4349300;32;20014;-78
2021/10/29 10:50:05;;;;;;;;;;;15.70;88.10;;;;;;4363408;32;20024;-78
2021/10/29 10:52:55;;;;;;;;;;;15.70;87.60;;;;;;4349890;32;20042;-80
2021/10/29 10:55:29;;;;;;;;;;;15.80;87.50;;;;;;4348859;32;20005;-80
2021/10/29 10:58:22;;;;;;;;;;;15.90;87.60;;;;;;4361729;32;20357;-78
2021/10/29 11:01:00;;;;;;;;;;;15.90;87.40;;;;;;4362845;32;20432;-79
2021/10/29 11:04:01;;;;;;;;;;;16.00;87.60;;;;;;4349091;32;20008;-79
2021/10/29 11:06:50;;;;;;;;;;;16.00;87.60;;;;;;4348629;32;35535;-78
2021/10/29 11:12:42;;;;;;;;;;;16.10;87.50;;;;;;4362763;32;20012;-79
2021/10/29 11:15:21;;;;;;;;;;;16.20;87.40;;;;;;4362683;32;20374;-79
2021/10/29 11:17:57;;;;;;;;;;;16.20;87.30;;;;;;4362672;32;20052;-79
2021/10/29 11:20:41;;;;;;;;;;;16.30;87.10;;;;;;4348958;32;20004;-80
2021/10/29 11:23:18;;;;;;;;;;;16.30;87.20;;;;;;4362771;32;20009;-81
2021/10/29 11:25:58;;;;;;;;;;;16.30;87.00;;;;;;4362338;32;20009;-80
2021/10/29 11:28:36;;;;;;;;;;;16.40;87.00;;;;;;4336549;32;20013;-79
2021/10/29 11:31:08;;;;;;;;;;;16.50;86.40;;;;;;4349974;32;20018;-80
2021/10/29 11:33:45;;;;;;;;;;;16.50;85.50;;;;;;4336133;32;20369;-78
2021/10/29 11:36:24;;;;;;;;;;;16.50;86.50;;;;;;4349250;32;20016;-78
2021/10/29 11:38:59;;;;;;;;;;;16.60;85.70;;;;;;4337158;32;20004;-79
2021/10/29 11:41:31;;;;;;;;;;;16.60;85.70;;;;;;4349118;32;20017;-78
2021/10/29 11:44:01;;;;;;;;;;;16.70;85.00;;;;;;4348762;32;20373;-78
2021/10/29 11:46:29;;;;;;;;;;;16.70;85.30;;;;;;4348981;32;20020;-78
2021/10/29 11:49:04;;;;;;;;;;;16.70;85.30;;;;;;4361998;32;20021;-78
2021/10/29 11:51:32;;;;;;;;;;;16.80;84.90;;;;;;4362165;32;20023;-78
2021/10/29 12:07:15;;;;;;;;;;;17.00;84.10;;;;;;4362241;32;20019;-79
2021/10/29 12:09:43;;;;;;;;;;;17.00;84.50;;;;;;4347889;32;20008;-81
2021/10/29 12:12:12;;;;;;;;;;;17.10;84.70;;;;;;4362190;32;20068;-79
2021/10/29 12:14:41;;;;;;;;;;;17.10;84.30;;;;;;4361616;32;20019;-81
2021/10/29 12:17:11;;;;;;;;;;;17.20;84.10;;;;;;4361375;32;20004;-80
2021/10/29 12:19:40;;;;;;;;;;;17.20;83.40;;;;;;4349031;32;20001;-80
2021/10/29 12:22:33;;;;;;;;;;;17.20;84.00;;;;;;4335851;32;20370;-80
2021/10/29 12:27:43;;;;;;;;;;;17.30;83.50;;;;;;4347523;32;25162;-81
2021/10/29 12:30:14;;;;;;;;;;;17.30;83.30;;;;;;4361479;32;20012;-81
2021/10/29 12:33:05;;;;;;;;;;;17.30;83.40;;;;;;4336008;32;20010;-80
2021/10/29 13:03:55;;;;;;;;;;;17.70;81.20;;;;;;4361094;32;20021;-79
2021/10/29 13:06:27;;;;;;;;;;;17.70;81.30;;;;;;4360869;32;25254;-80
2021/10/29 13:08:54;;;;;;;;;;;17.70;81.10;;;;;;4346797;33;45303;-80
2021/10/29 13:11:25;;;;;;;;;;;17.80;81.20;;;;;;4360940;32;27270;-79
2021/10/29 13:13:59;;;;;;;;;;;17.80;81.80;;;;;;4361335;33;20436;-79
2021/10/29 13:16:30;;;;;;;;;;;17.80;81.50;;;;;;4347850;33;20019;-79
2021/10/29 13:19:17;;;;;;;;;;;17.90;81.30;;;;;;4360934;33;20424;-80
2021/10/29 13:36:05;;;;;;;;;;;17.90;81.40;;;;;;4363228;32;38725;-81
2021/10/29 13:52:24;;;;;;;;;;;18.00;81.60;;;;;;4362991;32;43493;-80
2021/10/29 14:00:34;;;;;;;;;;;18.00;81.70;;;;;;4350059;32;20071;-79
2021/10/29 14:33:06;;;;;;;;;;;17.90;81.30;;;;;;4348849;32;30948;-79
2021/10/29 14:35:38;;;;;;;;;;;18.00;81.50;;;;;;4336253;32;45046;-79
2021/10/29 14:38:26;;;;;;;;;;;18.00;81.60;;;;;;4348883;32;29293;-79
2021/10/29 14:41:01;;;;;;;;;;;18.00;81.80;;;;;;4362121;32;43341;-79
2021/10/29 14:43:35;;;;;;;;;;;18.00;81.70;;;;;;4348855;32;44672;-78
2021/10/29 14:48:43;;;;;;;;;;;18.00;82.00;;;;;;4348908;32;27878;-79
2021/10/29 15:05:05;;;;;;;;;;;18.00;82.00;;;;;;4347947;32;44342;-79
2021/10/29 15:15:51;;;;;;;;;;;17.90;82.30;;;;;;4361866;32;43773;-79
2021/10/29 15:29:24;;;;;;;;;;;18.00;82.60;;;;;;4362351;32;20009;-78
2021/10/29 15:45:48;;;;;;;;;;;18.00;82.60;;;;;;4362818;32;20009;-77
2021/10/29 15:48:23;;;;;;;;;;;18.00;82.60;;;;;;4349796;32;20004;-77
2021/10/29 15:50:58;;;;;;;;;;;18.00;82.60;;;;;;4348755;32;19996;-78
2021/10/29 15:53:25;;;;;;;;;;;18.00;82.50;;;;;;4348583;32;24436;-78
2021/10/29 15:56:05;;;;;;;;;;;18.00;82.70;;;;;;4360586;32;42634;-79
2021/10/29 15:58:56;;;;;;;;;;;17.90;82.60;;;;;;4361845;32;20067;-77
2021/10/29 16:02:05;;;;;;;;;;;17.90;82.60;;;;;;4336463;32;20047;-78
2021/10/29 16:18:14;;;;;;;;;;;17.80;82.80;;;;;;4347680;32;25127;-79
2021/10/29 16:20:45;;;;;;;;;;;17.80;82.90;;;;;;4348408;32;20039;-78
2021/10/29 16:23:17;;;;;;;;;;;17.80;82.80;;;;;;4336215;32;20358;-78
2021/10/29 16:26:20;;;;;;;;;;;17.80;82.90;;;;;;4335246;32;35871;-78
2021/10/29 16:28:41;;;;;;;;;;;17.80;83.00;;;;;;4347302;32;20018;-79
2021/10/29 16:31:13;;;;;;;;;;;17.80;83.00;;;;;;4334934;32;30720;-79
2021/10/29 16:33:41;;;;;;;;;;;17.80;83.10;;;;;;4347075;32;32778;-79
2021/10/29 16:36:08;;;;;;;;;;;17.80;83.10;;;;;;4335376;32;20427;-79
2021/10/29 16:38:35;;;;;;;;;;;17.80;83.20;;;;;;4334948;32;31483;-79
2021/10/29 16:41:06;;;;;;;;;;;17.80;83.30;;;;;;4335024;32;33621;-78
2021/10/29 16:43:40;;;;;;;;;;;17.80;83.20;;;;;;4347986;32;20013;-79
2021/10/29 16:46:08;;;;;;;;;;;17.80;82.90;;;;;;4335931;32;19997;-79
2021/10/29 16:48:39;;;;;;;;;;;17.80;83.00;;;;;;4335501;32;20107;-79
2021/10/29 16:51:12;;;;;;;;;;;17.80;83.30;;;;;;4336001;32;20068;-77
2021/10/29 16:53:42;;;;;;;;;;;17.80;83.60;;;;;;4348417;32;20023;-78
2021/10/29 16:56:12;;;;;;;;;;;17.70;83.80;;;;;;4335900;32;20011;-77
2021/10/29 16:58:47;;;;;;;;;;;17.70;84.00;;;;;;4335327;32;35981;-77
2021/10/29 17:01:14;;;;;;;;;;;17.60;84.20;;;;;;4335465;32;20034;-77
2021/10/29 17:03:44;;;;;;;;;;;17.60;84.30;;;;;;4346445;32;43021;-78
2021/10/29 17:06:15;;;;;;;;;;;17.60;84.30;;;;;;4347794;32;20024;-78
2021/10/29 17:08:42;;;;;;;;;;;17.60;84.30;;;;;;4334845;32;31849;-78
2021/10/29 17:11:15;;;;;;;;;;;17.60;84.50;;;;;;4334361;32;37444;-77
2021/10/29 17:13:43;;;;;;;;;;;17.60;84.60;;;;;;4348601;33;20478;-78
2021/10/29 17:16:11;;;;;;;;;;;17.50;84.70;;;;;;4335142;33;23112;-78
2021/10/29 17:18:38;;;;;;;;;;;17.50;84.90;;;;;;4346819;33;28481;-77
2021/10/29 17:21:11;;;;;;;;;;;17.50;85.00;;;;;;4334286;33;37515;-77
2021/10/29 17:23:38;;;;;;;;;;;17.40;85.10;;;;;;4334996;33;24405;-78
2021/10/29 17:26:09;;;;;;;;;;;17.40;85.30;;;;;;4334870;33;20005;-77
2021/10/29 17:28:36;;;;;;;;;;;17.30;85.40;;;;;;4335333;33;20052;-79
2021/10/29 17:31:03;;;;;;;;;;;17.30;85.60;;;;;;4347798;33;20019;-77
2021/10/29 17:33:33;;;;;;;;;;;17.30;85.80;;;;;;4360653;33;20414;-78
2021/10/29 17:36:00;;;;;;;;;;;17.20;86.00;;;;;;4360275;33;36835;-79
2021/10/29 17:38:36;;;;;;;;;;;17.10;86.20;;;;;;4347569;33;43064;-77
2021/10/29 17:41:06;;;;;;;;;;;17.10;86.60;;;;;;4347497;33;31391;-78
2021/10/29 17:43:37;;;;;;;;;;;17.00;87.00;;;;;;4360099;33;29833;-77
2021/10/29 17:46:05;;;;;;;;;;;16.90;87.10;;;;;;4346295;33;40750;-77
2021/10/29 17:48:35;;;;;;;;;;;16.90;87.30;;;;;;4346789;33;43211;-78
2021/10/29 17:51:03;;;;;;;;;;;16.90;87.50;;;;;;4346632;33;31186;-77
2021/10/29 17:53:34;;;;;;;;;;;16.90;87.60;;;;;;4347343;33;20011;-77
2021/10/29 17:56:02;;;;;;;;;;;16.80;87.80;;;;;;4347119;33;30388;-76
2021/10/29 17:58:33;;;;;;;;;;;16.80;87.90;;;;;;4360951;33;20065;-77
2021/10/29 18:01:03;;;;;;;;;;;16.80;88.10;;;;;;4347569;33;20025;-78
2021/10/29 18:03:31;;;;;;;;;;;16.70;88.30;;;;;;4347569;33;20006;-77
2021/10/29 18:06:04;;;;;;;;;;;16.70;88.50;;;;;;4347269;32;20439;-77
2021/10/29 18:08:41;;;;;;;;;;;16.70;88.70;;;;;;4362684;32;39230;-77
2021/10/29 18:11:18;;;;;;;;;;;16.60;88.90;;;;;;4350487;32;20020;-77
2021/10/29 18:13:45;;;;;;;;;;;16.60;89.30;;;;;;4338003;32;20335;-77
2021/10/29 18:16:16;;;;;;;;;;;16.60;89.40;;;;;;4350104;32;20040;-78
2021/10/29 18:18:49;;;;;;;;;;;16.50;90.00;;;;;;4348929;32;36784;-77
2021/10/29 18:21:21;;;;;;;;;;;16.50;90.10;;;;;;4349952;32;23329;-77
2021/10/29 18:23:56;;;;;;;;;;;16.40;90.20;;;;;;4362588;32;42652;-77
2021/10/29 18:26:27;;;;;;;;;;;16.30;90.20;;;;;;4349090;32;40213;-78
2021/10/29 18:28:57;;;;;;;;;;;16.30;90.30;;;;;;4348956;32;27416;-77
2021/10/29 18:31:27;;;;;;;;;;;16.20;90.50;;;;;;4350183;32;20112;-78
2021/10/29 18:33:55;;;;;;;;;;;16.30;90.60;;;;;;4350026;32;20047;-77
2021/10/29 18:36:25;;;;;;;;;;;16.20;90.60;;;;;;4336939;32;29504;-77
2021/10/29 18:39:01;;;;;;;;;;;16.20;90.60;;;;;;4350049;32;20013;-77
2021/10/29 18:41:31;;;;;;;;;;;16.20;90.70;;;;;;4349364;32;28492;-78
2021/10/29 18:44:06;;;;;;;;;;;16.10;90.70;;;;;;4362484;32;20015;-77
2021/10/29 18:46:37;;;;;;;;;;;16.10;90.90;;;;;;4349038;32;36904;-77
2021/10/29 18:49:08;;;;;;;;;;;16.10;91.00;;;;;;4349127;32;37188;-78
2021/10/29 18:51:38;;;;;;;;;;;16.00;91.00;;;;;;4362445;32;28821;-77
2021/10/29 18:54:06;;;;;;;;;;;16.00;91.10;;;;;;4348490;32;36916;-77
2021/10/29 18:56:36;;;;;;;;;;;16.00;91.20;;;;;;4361636;32;37627;-78
2021/10/29 18:59:04;;;;;;;;;;;16.00;91.20;;;;;;4348812;32;23860;-78
2021/10/29 19:01:32;;;;;;;;;;;16.00;91.20;;;;;;4637329;27;20166;-77
2021/10/29 19:04:02;;;;;;;;;;;16.00;91.20;;;;;;4333582;33;20010;-76
2021/10/29 19:06:29;;;;;;;;;;;15.90;91.30;;;;;;4331165;33;34009;-77
2021/10/29 19:08:57;;;;;;;;;;;15.90;91.30;;;;;;4331890;33;20428;-76
2021/10/29 19:11:29;;;;;;;;;;;15.90;91.20;;;;;;4331824;33;20453;-76
2021/10/29 19:13:57;;;;;;;;;;;15.90;91.30;;;;;;4332308;33;43450;-77
2021/10/29 19:16:25;;;;;;;;;;;15.90;91.30;;;;;;4330612;33;42619;-76
2021/10/29 19:18:52;;;;;;;;;;;15.90;91.30;;;;;;4331156;33;44469;-76
2021/10/29 19:21:20;;;;;;;;;;;15.90;91.30;;;;;;4332151;33;43842;-76
2021/10/29 19:23:47;;;;;;;;;;;15.90;91.30;;;;;;4331584;33;43789;-76
2021/10/29 19:26:15;;;;;;;;;;;15.90;91.30;;;;;;4332428;33;25160;-77